createdAt,value
2022-12-26T00:00:01.476Z,1005.1
2022-12-26T00:05:02.264Z,1005.1
2022-12-26T00:10:01.846Z,1005
2022-12-26T00:15:01.623Z,1005
2022-12-26T00:20:02.080Z,1004.9
2022-12-26T00:25:01.844Z,1004.9
2022-12-26T00:30:02.171Z,1004.9
2022-12-26T00:35:01.935Z,1004.9
2022-12-26T00:40:02.044Z,1004.8
2022-12-26T00:45:01.714Z,1004.8
2022-12-26T00:50:13.575Z,1004.7
2022-12-26T00:55:02.209Z,1004.7
2022-12-26T01:00:01.636Z,1005
2022-12-26T01:05:05.661Z,1005
2022-12-26T01:10:02.221Z,1005.1
2022-12-26T01:15:01.920Z,1005.1
2022-12-26T01:20:02.388Z,1005.1
2022-12-26T01:25:02.308Z,1005.1
2022-12-26T01:30:01.866Z,1005.1
2022-12-26T01:35:01.437Z,1005.1
2022-12-26T01:40:01.775Z,1005.1
2022-12-26T01:45:01.745Z,1005.1
2022-12-26T01:50:02.332Z,1005.1
2022-12-26T01:55:02.014Z,1005.1
2022-12-26T02:00:02.380Z,1005
2022-12-26T02:05:02.412Z,1005
2022-12-26T02:10:01.899Z,1005
2022-12-26T02:15:01.943Z,1005
2022-12-26T02:20:01.359Z,1005
2022-12-26T02:25:02.009Z,1005
2022-12-26T02:30:01.465Z,1005.1
2022-12-26T02:35:01.981Z,1005.1
2022-12-26T02:40:01.460Z,1005.2
2022-12-26T02:45:01.768Z,1005.2
2022-12-26T02:50:02.372Z,1005.2
2022-12-26T02:55:01.977Z,1005.2
2022-12-26T03:00:02.445Z,1005.2
2022-12-26T03:05:01.708Z,1005.2
2022-12-26T03:10:01.816Z,1005.2
2022-12-26T03:15:01.538Z,1005.2
2022-12-26T03:20:02.567Z,1005.2
2022-12-26T03:25:02.088Z,1005.2
2022-12-26T03:30:02.453Z,1005.1
2022-12-26T03:35:01.680Z,1005.1
2022-12-26T03:40:02.038Z,1005.1
2022-12-26T03:45:01.775Z,1005.1
2022-12-26T03:50:02.425Z,1005.2
2022-12-26T03:55:02.239Z,1005.2
2022-12-26T04:00:02.156Z,1005.1
2022-12-26T04:05:01.546Z,1005.1
2022-12-26T04:10:02.440Z,1005.2
2022-12-26T04:15:02.416Z,1005.2
2022-12-26T04:20:02.322Z,1005.2
2022-12-26T04:25:02.204Z,1005.2
2022-12-26T04:30:02.332Z,1005.1
2022-12-26T04:35:02.220Z,1005.1
2022-12-26T04:40:01.929Z,1005.1
2022-12-26T04:45:02.304Z,1005.1
2022-12-26T04:50:01.848Z,1005.1
2022-12-26T04:55:02.018Z,1005.1
2022-12-26T05:00:02.562Z,1005.3
2022-12-26T05:05:01.590Z,1005.3
2022-12-26T05:10:02.247Z,1005.4
2022-12-26T05:15:01.892Z,1005.4
2022-12-26T05:20:01.566Z,1005.4
2022-12-26T05:25:02.198Z,1005.4
2022-12-26T05:30:01.857Z,1005.4
2022-12-26T05:35:01.752Z,1005.4
2022-12-26T05:40:02.180Z,1005.4
2022-12-26T05:45:01.876Z,1005.4
2022-12-26T05:50:02.288Z,1005.4
2022-12-26T05:55:02.016Z,1005.4
2022-12-26T06:00:01.741Z,1005.6
2022-12-26T06:05:02.474Z,1005.6
2022-12-26T06:10:02.209Z,1005.4
2022-12-26T06:15:02.206Z,1005.4
2022-12-26T06:20:10.221Z,1005.2
2022-12-26T06:25:01.673Z,1005.2
2022-12-26T06:30:02.311Z,1005.3
2022-12-26T06:35:01.925Z,1005.3
2022-12-26T06:40:01.965Z,1005.4
2022-12-26T06:45:02.513Z,1005.4
2022-12-26T06:50:01.714Z,1005.5
2022-12-26T06:55:02.231Z,1005.5
2022-12-26T07:00:01.674Z,1005.4
2022-12-26T07:05:02.427Z,1005.4
2022-12-26T07:10:02.607Z,1005.6
2022-12-26T07:15:02.193Z,1005.6
2022-12-26T07:20:02.522Z,1005.7
2022-12-26T07:25:02.134Z,1005.7
2022-12-26T07:30:01.630Z,1005.9
2022-12-26T07:35:02.256Z,1005.9
2022-12-26T07:40:01.796Z,1006
2022-12-26T07:45:01.715Z,1006
2022-12-26T07:50:02.394Z,1006.1
2022-12-26T07:55:02.391Z,1006.1
2022-12-26T08:00:02.065Z,1006
2022-12-26T08:05:01.804Z,1006
2022-12-26T08:10:02.351Z,1005.9
2022-12-26T08:15:02.030Z,1005.9
2022-12-26T08:20:02.531Z,1005.8
2022-12-26T08:25:02.287Z,1005.8
2022-12-26T08:30:01.951Z,1005.5
2022-12-26T08:35:02.517Z,1005.5
2022-12-26T08:40:02.512Z,1005.5
2022-12-26T08:45:02.090Z,1005.5
2022-12-26T08:50:01.843Z,1005.6
2022-12-26T08:55:02.068Z,1005.6
2022-12-26T09:00:02.334Z,1005.6
2022-12-26T09:05:02.606Z,1005.6
2022-12-26T09:10:02.755Z,1005.6
2022-12-26T09:15:02.510Z,1005.6
2022-12-26T09:20:01.710Z,1005.6
2022-12-26T09:25:01.644Z,1005.6
2022-12-26T09:30:01.878Z,1005.7
2022-12-26T09:35:02.056Z,1005.7
2022-12-26T09:40:02.637Z,1005.9
2022-12-26T09:45:02.620Z,1005.9
2022-12-26T09:50:02.156Z,1006.1
2022-12-26T09:55:02.413Z,1006.1
2022-12-26T10:00:02.326Z,1006.1
2022-12-26T10:05:02.880Z,1006.1
2022-12-26T10:10:02.564Z,1006.1
2022-12-26T10:15:02.148Z,1006.1
2022-12-26T10:20:02.650Z,1006.1
2022-12-26T10:25:02.609Z,1006.1
2022-12-26T10:30:02.192Z,1006
2022-12-26T10:35:02.033Z,1006
2022-12-26T10:40:02.252Z,1005.9
2022-12-26T10:45:02.349Z,1005.9
2022-12-26T10:50:01.916Z,1005.7
2022-12-26T10:55:28.081Z,1005.7
2022-12-26T11:00:02.598Z,1005.7
2022-12-26T11:06:11.156Z,1005.7
2022-12-26T11:10:02.523Z,1005.6
2022-12-26T11:15:02.021Z,1005.6
2022-12-26T11:20:01.877Z,1005.6
2022-12-26T11:25:02.060Z,1005.6
2022-12-26T11:30:01.785Z,1005.5
2022-12-26T11:35:01.866Z,1005.5
2022-12-26T11:40:02.228Z,1005.3
2022-12-26T11:45:01.980Z,1005.3
2022-12-26T11:50:02.358Z,1005.2
2022-12-26T11:55:02.176Z,1005.2
2022-12-26T12:00:02.658Z,1005.1
2022-12-26T12:05:02.361Z,1005.1
2022-12-26T12:10:01.856Z,1005
2022-12-26T12:15:02.556Z,1005
2022-12-26T12:20:02.425Z,1005
2022-12-26T12:25:02.079Z,1005
2022-12-26T12:30:02.637Z,1004.7
2022-12-26T12:35:01.867Z,1004.7
2022-12-26T12:40:02.063Z,1004.6
2022-12-26T12:45:01.766Z,1004.6
2022-12-26T12:50:02.274Z,1004.6
2022-12-26T12:55:02.111Z,1004.6
2022-12-26T13:00:01.798Z,1004.7
2022-12-26T13:05:02.207Z,1004.7
2022-12-26T13:10:02.704Z,1004.6
2022-12-26T13:15:02.559Z,1004.6
2022-12-26T13:20:03.032Z,1004.6
2022-12-26T13:25:02.098Z,1004.6
2022-12-26T13:30:02.530Z,1004.7
2022-12-26T13:35:02.351Z,1004.7
2022-12-26T13:40:02.513Z,1004.7
2022-12-26T13:45:02.149Z,1004.7
2022-12-26T13:50:02.004Z,1004.7
2022-12-26T13:55:01.793Z,1004.7
2022-12-26T14:00:02.067Z,1005.3
2022-12-26T14:05:02.080Z,1005.3
2022-12-26T14:10:02.731Z,1005.5
2022-12-26T14:15:02.522Z,1005.5
2022-12-26T14:20:02.231Z,1005.7
2022-12-26T14:25:02.680Z,1005.7
2022-12-26T14:30:02.512Z,1006.4
2022-12-26T14:35:02.232Z,1006.4
2022-12-26T14:40:02.444Z,1006.5
2022-12-26T14:45:02.861Z,1006.5
2022-12-26T14:50:02.497Z,1006.6
2022-12-26T14:55:02.609Z,1006.6
2022-12-26T15:00:03.825Z,1007
2022-12-26T15:05:02.720Z,1007
2022-12-26T15:10:02.888Z,1007.1
2022-12-26T15:15:02.616Z,1007.1
2022-12-26T15:20:02.435Z,1007.2
2022-12-26T15:25:20.056Z,1007.2
2022-12-26T15:30:02.282Z,1007.9
2022-12-26T15:35:02.034Z,1007.9
2022-12-26T15:40:02.371Z,1007.9
2022-12-26T15:45:02.004Z,1007.9
2022-12-26T15:50:02.540Z,1007.9
2022-12-26T15:55:02.951Z,1007.9
2022-12-26T16:00:02.431Z,1008.3
2022-12-26T16:05:02.734Z,1008.3
2022-12-26T16:10:02.493Z,1008.4
2022-12-26T16:15:02.030Z,1008.4
2022-12-26T16:20:02.617Z,1008.4
2022-12-26T16:25:02.480Z,1008.4
2022-12-26T16:30:08.113Z,1008.7
2022-12-26T16:35:02.711Z,1008.7
2022-12-26T16:40:02.143Z,1008.8
2022-12-26T16:45:02.141Z,1008.8
2022-12-26T16:50:02.720Z,1008.8
2022-12-26T16:55:02.346Z,1008.8
2022-12-26T17:00:02.137Z,1008.8
2022-12-26T17:05:02.735Z,1008.8
2022-12-26T17:10:02.125Z,1008.9
2022-12-26T17:15:02.973Z,1008.9
2022-12-26T17:20:02.592Z,1009
2022-12-26T17:25:02.490Z,1009
2022-12-26T17:30:01.993Z,1009.3
2022-12-26T17:35:02.083Z,1009.3
2022-12-26T17:40:03.042Z,1009.4
2022-12-26T17:45:02.875Z,1009.4
2022-12-26T17:50:02.199Z,1009.4
2022-12-26T17:55:02.643Z,1009.4
2022-12-26T18:00:02.098Z,1009.4
2022-12-26T18:05:02.914Z,1009.4
2022-12-26T18:10:02.526Z,1009.4
2022-12-26T18:15:02.910Z,1009.4
2022-12-26T18:20:02.593Z,1009.4
2022-12-26T18:25:02.141Z,1009.4
2022-12-26T18:30:02.508Z,1009.5
2022-12-26T18:35:02.178Z,1009.5
2022-12-26T18:40:02.573Z,1009.6
2022-12-26T18:45:02.068Z,1009.6
2022-12-26T18:50:02.440Z,1009.7
2022-12-26T18:55:02.656Z,1009.7
2022-12-26T19:00:02.182Z,1009.8
2022-12-26T19:05:02.872Z,1009.8
2022-12-26T19:10:02.356Z,1010
2022-12-26T19:15:02.369Z,1010
2022-12-26T19:20:02.087Z,1010.1
2022-12-26T19:25:03.071Z,1010.1
2022-12-26T19:30:02.672Z,1010.4
2022-12-26T19:35:02.160Z,1010.4
2022-12-26T19:40:02.908Z,1010.5
2022-12-26T19:45:02.304Z,1010.5
2022-12-26T19:50:02.065Z,1010.5
2022-12-26T19:55:02.861Z,1010.5
2022-12-26T20:00:02.439Z,1010.5
2022-12-26T20:05:02.342Z,1010.5
2022-12-26T20:10:02.777Z,1010.7
2022-12-26T20:15:02.385Z,1010.7
2022-12-26T20:20:02.827Z,1010.8
2022-12-26T20:25:02.509Z,1010.8
2022-12-26T20:30:02.838Z,1011
2022-12-26T20:35:02.492Z,1011
2022-12-26T20:40:02.682Z,1011
2022-12-26T20:45:02.649Z,1011
2022-12-26T20:50:02.154Z,1011
2022-12-26T20:55:02.413Z,1011
2022-12-26T21:00:02.813Z,1011.4
2022-12-26T21:05:02.235Z,1011.4
2022-12-26T21:10:02.319Z,1011.4
2022-12-26T21:15:02.305Z,1011.4
2022-12-26T21:20:03.047Z,1011.4
2022-12-26T21:25:02.519Z,1011.4
2022-12-26T21:30:03.008Z,1011.5
2022-12-26T21:35:02.214Z,1011.5
2022-12-26T21:40:02.128Z,1011.7
2022-12-26T21:45:02.382Z,1011.7
2022-12-26T21:50:03.048Z,1011.8
2022-12-26T21:55:02.934Z,1011.8
2022-12-26T22:00:02.196Z,1012
2022-12-26T22:05:02.321Z,1012
2022-12-26T22:10:03.001Z,1012
2022-12-26T22:15:02.720Z,1012
2022-12-26T22:20:02.329Z,1012
2022-12-26T22:25:02.237Z,1012
2022-12-26T22:30:02.899Z,1012.2
2022-12-26T22:35:03.064Z,1012.2
2022-12-26T22:40:02.650Z,1012.3
2022-12-26T22:45:02.545Z,1012.3
2022-12-26T22:50:02.993Z,1012.4
2022-12-26T22:55:03.108Z,1012.4
2022-12-26T23:00:08.778Z,1012.5
2022-12-26T23:05:03.096Z,1012.5
2022-12-26T23:10:02.977Z,1012.5
2022-12-26T23:15:02.667Z,1012.5
2022-12-26T23:20:02.167Z,1012.5
2022-12-26T23:25:02.645Z,1012.5
2022-12-26T23:30:03.056Z,1012.5
2022-12-26T23:35:02.548Z,1012.5
2022-12-26T23:40:02.241Z,1012.5
2022-12-26T23:45:02.172Z,1012.5
2022-12-26T23:50:02.719Z,1012.5
2022-12-26T23:55:02.786Z,1012.5
